sensor_id;sensor_type;location;lat;lon;timestamp;P1;durP1;ratioP1;P2;durP2;ratioP2
51179;SDS011;37243;49.814;8.652;2022-12-24T00:01:33;0.90;;;0.90;;
51179;SDS011;37243;49.814;8.652;2022-12-24T00:04:02;1.02;;;0.95;;
51179;SDS011;37243;49.814;8.652;2022-12-24T00:06:30;2.97;;;1.00;;
51179;SDS011;37243;49.814;8.652;2022-12-24T00:08:59;1.10;;;1.00;;
51179;SDS011;37243;49.814;8.652;2022-12-24T00:11:27;1.23;;;1.13;;
51179;SDS011;37243;49.814;8.652;2022-12-24T00:13:55;1.35;;;0.90;;
51179;SDS011;37243;49.814;8.652;2022-12-24T00:16:23;1.15;;;1.13;;
51179;SDS011;37243;49.814;8.652;2022-12-24T00:18:54;1.33;;;1.00;;
51179;SDS011;37243;49.814;8.652;2022-12-24T00:21:23;1.15;;;1.10;;
51179;SDS011;37243;49.814;8.652;2022-12-24T00:23:51;1.42;;;1.10;;
51179;SDS011;37243;49.814;8.652;2022-12-24T00:26:19;1.92;;;1.25;;
51179;SDS011;37243;49.814;8.652;2022-12-24T00:28:48;1.30;;;1.05;;
51179;SDS011;37243;49.814;8.652;2022-12-24T00:31:17;0.95;;;0.95;;
51179;SDS011;37243;49.814;8.652;2022-12-24T00:33:45;1.08;;;0.90;;
51179;SDS011;37243;49.814;8.652;2022-12-24T00:36:17;1.38;;;1.00;;
51179;SDS011;37243;49.814;8.652;2022-12-24T00:38:46;1.10;;;0.90;;
51179;SDS011;37243;49.814;8.652;2022-12-24T00:41:14;1.00;;;1.00;;
51179;SDS011;37243;49.814;8.652;2022-12-24T00:43:53;1.38;;;1.27;;
51179;SDS011;37243;49.814;8.652;2022-12-24T00:46:22;1.30;;;1.20;;
51179;SDS011;37243;49.814;8.652;2022-12-24T00:48:51;1.10;;;0.93;;
51179;SDS011;37243;49.814;8.652;2022-12-24T00:51:23;0.98;;;0.90;;
51179;SDS011;37243;49.814;8.652;2022-12-24T00:53:51;1.15;;;0.98;;
51179;SDS011;37243;49.814;8.652;2022-12-24T00:56:20;1.80;;;1.20;;
51179;SDS011;37243;49.814;8.652;2022-12-24T00:58:48;1.10;;;1.00;;
51179;SDS011;37243;49.814;8.652;2022-12-24T01:01:17;1.15;;;1.00;;
51179;SDS011;37243;49.814;8.652;2022-12-24T01:03:45;0.85;;;0.85;;
51179;SDS011;37243;49.814;8.652;2022-12-24T01:06:15;1.60;;;1.00;;
51179;SDS011;37243;49.814;8.652;2022-12-24T01:08:45;1.33;;;1.23;;
51179;SDS011;37243;49.814;8.652;2022-12-24T01:11:17;1.58;;;1.20;;
51179;SDS011;37243;49.814;8.652;2022-12-24T01:13:45;0.88;;;0.88;;
51179;SDS011;37243;49.814;8.652;2022-12-24T01:16:14;1.25;;;0.93;;
51179;SDS011;37243;49.814;8.652;2022-12-24T01:18:45;1.40;;;0.90;;
51179;SDS011;37243;49.814;8.652;2022-12-24T01:21:13;1.52;;;0.90;;
51179;SDS011;37243;49.814;8.652;2022-12-24T01:23:47;1.02;;;1.00;;
51179;SDS011;37243;49.814;8.652;2022-12-24T01:26:15;1.40;;;1.30;;
51179;SDS011;37243;49.814;8.652;2022-12-24T01:28:43;1.17;;;1.02;;
51179;SDS011;37243;49.814;8.652;2022-12-24T01:31:12;1.20;;;1.10;;
51179;SDS011;37243;49.814;8.652;2022-12-24T01:33:42;1.25;;;0.95;;
51179;SDS011;37243;49.814;8.652;2022-12-24T01:36:11;1.30;;;1.13;;
51179;SDS011;37243;49.814;8.652;2022-12-24T01:38:40;0.73;;;0.73;;
51179;SDS011;37243;49.814;8.652;2022-12-24T01:41:15;1.00;;;1.00;;
51179;SDS011;37243;49.814;8.652;2022-12-24T01:43:57;0.90;;;0.90;;
51179;SDS011;37243;49.814;8.652;2022-12-24T01:46:26;1.20;;;1.13;;
51179;SDS011;37243;49.814;8.652;2022-12-24T01:48:58;1.38;;;1.20;;
51179;SDS011;37243;49.814;8.652;2022-12-24T01:51:29;1.35;;;1.20;;
51179;SDS011;37243;49.814;8.652;2022-12-24T01:54:03;0.82;;;0.82;;
51179;SDS011;37243;49.814;8.652;2022-12-24T01:56:39;1.25;;;1.05;;
51179;SDS011;37243;49.814;8.652;2022-12-24T01:59:12;1.10;;;1.00;;
51179;SDS011;37243;49.814;8.652;2022-12-24T02:01:43;1.15;;;1.02;;
51179;SDS011;37243;49.814;8.652;2022-12-24T02:04:15;1.27;;;1.10;;
51179;SDS011;37243;49.814;8.652;2022-12-24T02:06:48;1.00;;;0.90;;
51179;SDS011;37243;49.814;8.652;2022-12-24T02:09:16;1.02;;;0.93;;
51179;SDS011;37243;49.814;8.652;2022-12-24T02:11:47;0.98;;;0.98;;
51179;SDS011;37243;49.814;8.652;2022-12-24T02:14:16;1.08;;;0.98;;
51179;SDS011;37243;49.814;8.652;2022-12-24T02:16:46;1.08;;;0.95;;
51179;SDS011;37243;49.814;8.652;2022-12-24T02:22:32;0.82;;;0.82;;
51179;SDS011;37243;49.814;8.652;2022-12-24T02:25:17;0.82;;;0.82;;
51179;SDS011;37243;49.814;8.652;2022-12-24T02:28:04;1.00;;;0.93;;
51179;SDS011;37243;49.814;8.652;2022-12-24T02:30:45;0.90;;;0.90;;
51179;SDS011;37243;49.814;8.652;2022-12-24T02:33:24;1.08;;;1.00;;
51179;SDS011;37243;49.814;8.652;2022-12-24T02:35:58;1.13;;;0.88;;
51179;SDS011;37243;49.814;8.652;2022-12-24T02:38:33;0.93;;;0.90;;
51179;SDS011;37243;49.814;8.652;2022-12-24T02:41:04;1.05;;;0.98;;
51179;SDS011;37243;49.814;8.652;2022-12-24T02:43:36;1.48;;;1.20;;
51179;SDS011;37243;49.814;8.652;2022-12-24T02:46:12;0.80;;;0.80;;
51179;SDS011;37243;49.814;8.652;2022-12-24T02:48:43;1.40;;;0.90;;
51179;SDS011;37243;49.814;8.652;2022-12-24T02:51:15;1.00;;;0.90;;
51179;SDS011;37243;49.814;8.652;2022-12-24T02:53:43;0.88;;;0.77;;
51179;SDS011;37243;49.814;8.652;2022-12-24T02:56:30;1.13;;;1.05;;
51179;SDS011;37243;49.814;8.652;2022-12-24T02:59:23;1.25;;;1.15;;
51179;SDS011;37243;49.814;8.652;2022-12-24T03:02:07;0.77;;;0.77;;
51179;SDS011;37243;49.814;8.652;2022-12-24T03:04:44;1.08;;;0.95;;
51179;SDS011;37243;49.814;8.652;2022-12-24T03:07:24;1.10;;;0.85;;
51179;SDS011;37243;49.814;8.652;2022-12-24T03:10:00;0.70;;;0.68;;
51179;SDS011;37243;49.814;8.652;2022-12-24T03:12:37;1.08;;;0.98;;
51179;SDS011;37243;49.814;8.652;2022-12-24T03:15:08;1.05;;;0.90;;
51179;SDS011;37243;49.814;8.652;2022-12-24T03:17:42;1.98;;;1.20;;
51179;SDS011;37243;49.814;8.652;2022-12-24T03:20:16;1.10;;;0.90;;
51179;SDS011;37243;49.814;8.652;2022-12-24T03:22:49;1.00;;;0.90;;
51179;SDS011;37243;49.814;8.652;2022-12-24T03:25:18;1.00;;;0.90;;
51179;SDS011;37243;49.814;8.652;2022-12-24T03:27:51;1.10;;;1.00;;
51179;SDS011;37243;49.814;8.652;2022-12-24T03:30:20;1.65;;;1.25;;
51179;SDS011;37243;49.814;8.652;2022-12-24T03:32:51;1.40;;;1.10;;
51179;SDS011;37243;49.814;8.652;2022-12-24T03:35:20;0.88;;;0.80;;
51179;SDS011;37243;49.814;8.652;2022-12-24T03:37:48;1.20;;;0.90;;
51179;SDS011;37243;49.814;8.652;2022-12-24T03:40:17;1.33;;;1.10;;
51179;SDS011;37243;49.814;8.652;2022-12-24T03:42:45;1.25;;;0.88;;
51179;SDS011;37243;49.814;8.652;2022-12-24T03:45:14;1.00;;;1.00;;
51179;SDS011;37243;49.814;8.652;2022-12-24T03:47:44;1.30;;;0.85;;
51179;SDS011;37243;49.814;8.652;2022-12-24T03:50:15;0.88;;;0.80;;
51179;SDS011;37243;49.814;8.652;2022-12-24T03:52:43;0.90;;;0.80;;
51179;SDS011;37243;49.814;8.652;2022-12-24T03:55:12;1.17;;;0.95;;
51179;SDS011;37243;49.814;8.652;2022-12-24T03:57:40;1.20;;;1.10;;
51179;SDS011;37243;49.814;8.652;2022-12-24T04:00:09;1.17;;;0.98;;
51179;SDS011;37243;49.814;8.652;2022-12-24T04:02:38;1.00;;;0.90;;
51179;SDS011;37243;49.814;8.652;2022-12-24T04:05:07;1.70;;;1.05;;
51179;SDS011;37243;49.814;8.652;2022-12-24T04:07:42;0.90;;;0.85;;
51179;SDS011;37243;49.814;8.652;2022-12-24T04:10:11;1.10;;;1.00;;
51179;SDS011;37243;49.814;8.652;2022-12-24T04:12:40;0.80;;;0.80;;
51179;SDS011;37243;49.814;8.652;2022-12-24T04:15:09;0.93;;;0.80;;
51179;SDS011;37243;49.814;8.652;2022-12-24T04:17:38;1.67;;;0.90;;
51179;SDS011;37243;49.814;8.652;2022-12-24T04:20:07;1.10;;;1.00;;
51179;SDS011;37243;49.814;8.652;2022-12-24T04:22:36;1.05;;;0.90;;
51179;SDS011;37243;49.814;8.652;2022-12-24T04:25:09;0.90;;;0.90;;
51179;SDS011;37243;49.814;8.652;2022-12-24T04:27:37;1.48;;;1.10;;
51179;SDS011;37243;49.814;8.652;2022-12-24T04:30:06;1.13;;;1.02;;
51179;SDS011;37243;49.814;8.652;2022-12-24T04:32:35;1.27;;;1.00;;
51179;SDS011;37243;49.814;8.652;2022-12-24T04:35:04;1.48;;;1.02;;
51179;SDS011;37243;49.814;8.652;2022-12-24T04:37:33;1.30;;;1.20;;
51179;SDS011;37243;49.814;8.652;2022-12-24T04:40:01;1.00;;;1.00;;
51179;SDS011;37243;49.814;8.652;2022-12-24T04:42:32;1.02;;;0.93;;
51179;SDS011;37243;49.814;8.652;2022-12-24T04:45:01;1.20;;;1.10;;
51179;SDS011;37243;49.814;8.652;2022-12-24T04:47:29;0.80;;;0.80;;
51179;SDS011;37243;49.814;8.652;2022-12-24T04:49:57;1.17;;;0.80;;
51179;SDS011;37243;49.814;8.652;2022-12-24T04:52:26;0.90;;;0.90;;
51179;SDS011;37243;49.814;8.652;2022-12-24T04:54:54;1.20;;;1.00;;
51179;SDS011;37243;49.814;8.652;2022-12-24T04:57:23;0.82;;;0.80;;
51179;SDS011;37243;49.814;8.652;2022-12-24T04:59:54;1.73;;;1.00;;
51179;SDS011;37243;49.814;8.652;2022-12-24T05:02:22;0.90;;;0.90;;
51179;SDS011;37243;49.814;8.652;2022-12-24T05:04:50;1.60;;;1.23;;
51179;SDS011;37243;49.814;8.652;2022-12-24T05:07:18;1.05;;;1.00;;
51179;SDS011;37243;49.814;8.652;2022-12-24T05:09:47;2.13;;;1.05;;
51179;SDS011;37243;49.814;8.652;2022-12-24T05:12:15;1.40;;;1.15;;
51179;SDS011;37243;49.814;8.652;2022-12-24T05:14:43;1.13;;;1.00;;
51179;SDS011;37243;49.814;8.652;2022-12-24T05:17:14;1.08;;;0.93;;
51179;SDS011;37243;49.814;8.652;2022-12-24T05:19:43;0.98;;;0.68;;
51179;SDS011;37243;49.814;8.652;2022-12-24T05:22:11;0.90;;;0.90;;
51179;SDS011;37243;49.814;8.652;2022-12-24T05:24:52;1.08;;;0.95;;
51179;SDS011;37243;49.814;8.652;2022-12-24T05:27:33;0.60;;;0.60;;
51179;SDS011;37243;49.814;8.652;2022-12-24T05:30:01;1.27;;;1.17;;
51179;SDS011;37243;49.814;8.652;2022-12-24T05:32:32;1.08;;;0.88;;
51179;SDS011;37243;49.814;8.652;2022-12-24T05:35:00;1.20;;;0.80;;
51179;SDS011;37243;49.814;8.652;2022-12-24T05:37:28;1.40;;;1.15;;
51179;SDS011;37243;49.814;8.652;2022-12-24T05:39:57;1.20;;;1.00;;
51179;SDS011;37243;49.814;8.652;2022-12-24T05:42:25;0.80;;;0.80;;
51179;SDS011;37243;49.814;8.652;2022-12-24T05:44:53;0.80;;;0.75;;
51179;SDS011;37243;49.814;8.652;2022-12-24T05:47:22;1.15;;;0.98;;
51179;SDS011;37243;49.814;8.652;2022-12-24T05:49:53;0.98;;;0.85;;
51179;SDS011;37243;49.814;8.652;2022-12-24T05:52:21;1.00;;;0.77;;
51179;SDS011;37243;49.814;8.652;2022-12-24T05:54:49;0.85;;;0.85;;
51179;SDS011;37243;49.814;8.652;2022-12-24T05:57:17;0.90;;;0.90;;
51179;SDS011;37243;49.814;8.652;2022-12-24T05:59:46;0.98;;;0.82;;
51179;SDS011;37243;49.814;8.652;2022-12-24T06:02:16;1.02;;;0.90;;
51179;SDS011;37243;49.814;8.652;2022-12-24T06:04:44;1.00;;;1.00;;
51179;SDS011;37243;49.814;8.652;2022-12-24T06:07:15;0.70;;;0.68;;
51179;SDS011;37243;49.814;8.652;2022-12-24T06:09:43;0.80;;;0.80;;
51179;SDS011;37243;49.814;8.652;2022-12-24T06:12:11;1.63;;;1.10;;
51179;SDS011;37243;49.814;8.652;2022-12-24T06:14:39;0.70;;;0.70;;
51179;SDS011;37243;49.814;8.652;2022-12-24T06:17:08;0.95;;;0.90;;
51179;SDS011;37243;49.814;8.652;2022-12-24T06:19:36;0.98;;;0.98;;
51179;SDS011;37243;49.814;8.652;2022-12-24T06:22:04;0.77;;;0.77;;
51179;SDS011;37243;49.814;8.652;2022-12-24T06:24:35;1.00;;;1.00;;
51179;SDS011;37243;49.814;8.652;2022-12-24T06:27:03;1.15;;;1.00;;
51179;SDS011;37243;49.814;8.652;2022-12-24T06:29:31;1.27;;;1.10;;
51179;SDS011;37243;49.814;8.652;2022-12-24T06:32:00;0.90;;;0.90;;
51179;SDS011;37243;49.814;8.652;2022-12-24T06:34:28;1.15;;;1.05;;
51179;SDS011;37243;49.814;8.652;2022-12-24T06:36:56;1.20;;;1.10;;
51179;SDS011;37243;49.814;8.652;2022-12-24T06:39:24;1.60;;;1.10;;
51179;SDS011;37243;49.814;8.652;2022-12-24T06:41:55;0.90;;;0.90;;
51179;SDS011;37243;49.814;8.652;2022-12-24T06:44:24;0.93;;;0.85;;
51179;SDS011;37243;49.814;8.652;2022-12-24T06:46:52;1.25;;;1.08;;
51179;SDS011;37243;49.814;8.652;2022-12-24T06:49:21;0.82;;;0.82;;
51179;SDS011;37243;49.814;8.652;2022-12-24T06:51:49;1.15;;;1.00;;
51179;SDS011;37243;49.814;8.652;2022-12-24T06:54:17;1.02;;;0.88;;
51179;SDS011;37243;49.814;8.652;2022-12-24T06:56:48;1.15;;;1.05;;
51179;SDS011;37243;49.814;8.652;2022-12-24T06:59:19;1.85;;;1.10;;
51179;SDS011;37243;49.814;8.652;2022-12-24T07:01:47;0.80;;;0.80;;
51179;SDS011;37243;49.814;8.652;2022-12-24T07:04:15;1.00;;;1.00;;
51179;SDS011;37243;49.814;8.652;2022-12-24T07:06:44;1.80;;;1.15;;
51179;SDS011;37243;49.814;8.652;2022-12-24T07:09:12;1.00;;;1.00;;
51179;SDS011;37243;49.814;8.652;2022-12-24T07:11:41;0.90;;;0.90;;
51179;SDS011;37243;49.814;8.652;2022-12-24T07:14:09;1.35;;;0.90;;
51179;SDS011;37243;49.814;8.652;2022-12-24T07:16:40;0.90;;;0.90;;
51179;SDS011;37243;49.814;8.652;2022-12-24T07:19:08;1.05;;;0.90;;
51179;SDS011;37243;49.814;8.652;2022-12-24T07:21:36;1.40;;;1.05;;
51179;SDS011;37243;49.814;8.652;2022-12-24T07:24:05;1.55;;;0.80;;
51179;SDS011;37243;49.814;8.652;2022-12-24T07:26:33;1.05;;;1.02;;
51179;SDS011;37243;49.814;8.652;2022-12-24T07:29:02;0.80;;;0.80;;
51179;SDS011;37243;49.814;8.652;2022-12-24T07:31:30;0.90;;;0.90;;
51179;SDS011;37243;49.814;8.652;2022-12-24T07:34:01;0.88;;;0.88;;
51179;SDS011;37243;49.814;8.652;2022-12-24T07:36:29;2.15;;;1.20;;
51179;SDS011;37243;49.814;8.652;2022-12-24T07:38:57;0.90;;;0.90;;
51179;SDS011;37243;49.814;8.652;2022-12-24T07:41:26;1.30;;;0.90;;
51179;SDS011;37243;49.814;8.652;2022-12-24T07:43:54;1.30;;;0.98;;
51179;SDS011;37243;49.814;8.652;2022-12-24T07:46:22;1.17;;;0.80;;
51179;SDS011;37243;49.814;8.652;2022-12-24T07:48:51;1.13;;;1.13;;
51179;SDS011;37243;49.814;8.652;2022-12-24T07:51:22;1.58;;;1.30;;
51179;SDS011;37243;49.814;8.652;2022-12-24T07:53:51;1.25;;;1.10;;
51179;SDS011;37243;49.814;8.652;2022-12-24T07:56:19;1.65;;;1.10;;
51179;SDS011;37243;49.814;8.652;2022-12-24T07:58:48;1.67;;;1.17;;
51179;SDS011;37243;49.814;8.652;2022-12-24T08:01:17;0.95;;;0.95;;
51179;SDS011;37243;49.814;8.652;2022-12-24T08:03:46;1.10;;;0.85;;
51179;SDS011;37243;49.814;8.652;2022-12-24T08:06:15;1.35;;;0.90;;
51179;SDS011;37243;49.814;8.652;2022-12-24T08:08:46;0.93;;;0.90;;
51179;SDS011;37243;49.814;8.652;2022-12-24T08:11:14;0.80;;;0.80;;
51179;SDS011;37243;49.814;8.652;2022-12-24T08:13:43;1.15;;;1.00;;
51179;SDS011;37243;49.814;8.652;2022-12-24T08:16:11;0.90;;;0.90;;
51179;SDS011;37243;49.814;8.652;2022-12-24T08:18:39;1.20;;;1.00;;
51179;SDS011;37243;49.814;8.652;2022-12-24T08:21:08;0.75;;;0.70;;
51179;SDS011;37243;49.814;8.652;2022-12-24T08:23:37;1.42;;;1.00;;
51179;SDS011;37243;49.814;8.652;2022-12-24T08:26:08;1.35;;;1.15;;
51179;SDS011;37243;49.814;8.652;2022-12-24T08:28:37;2.92;;;1.38;;
51179;SDS011;37243;49.814;8.652;2022-12-24T08:31:06;3.45;;;1.65;;
51179;SDS011;37243;49.814;8.652;2022-12-24T08:33:37;1.25;;;0.95;;
51179;SDS011;37243;49.814;8.652;2022-12-24T08:36:05;1.85;;;1.20;;
51179;SDS011;37243;49.814;8.652;2022-12-24T08:38:34;1.15;;;0.95;;
51179;SDS011;37243;49.814;8.652;2022-12-24T08:41:02;1.88;;;1.17;;
51179;SDS011;37243;49.814;8.652;2022-12-24T08:43:34;1.88;;;1.13;;
51179;SDS011;37243;49.814;8.652;2022-12-24T08:46:02;2.33;;;1.27;;
51179;SDS011;37243;49.814;8.652;2022-12-24T08:48:32;2.72;;;1.67;;
51179;SDS011;37243;49.814;8.652;2022-12-24T08:51:04;2.35;;;1.45;;
51179;SDS011;37243;49.814;8.652;2022-12-24T08:53:34;1.85;;;1.50;;
51179;SDS011;37243;49.814;8.652;2022-12-24T08:56:02;2.05;;;1.25;;
51179;SDS011;37243;49.814;8.652;2022-12-24T08:58:35;2.85;;;1.20;;
51179;SDS011;37243;49.814;8.652;2022-12-24T09:01:08;2.15;;;1.17;;
51179;SDS011;37243;49.814;8.652;2022-12-24T09:03:38;2.47;;;1.42;;
51179;SDS011;37243;49.814;8.652;2022-12-24T09:06:07;2.95;;;1.42;;
51179;SDS011;37243;49.814;8.652;2022-12-24T09:08:36;2.63;;;1.23;;
51179;SDS011;37243;49.814;8.652;2022-12-24T09:11:05;1.85;;;1.02;;
51179;SDS011;37243;49.814;8.652;2022-12-24T09:13:38;1.48;;;1.20;;
51179;SDS011;37243;49.814;8.652;2022-12-24T09:16:07;2.55;;;1.65;;
51179;SDS011;37243;49.814;8.652;2022-12-24T09:18:35;2.75;;;1.83;;
51179;SDS011;37243;49.814;8.652;2022-12-24T09:21:05;3.35;;;1.35;;
51179;SDS011;37243;49.814;8.652;2022-12-24T09:23:35;3.45;;;1.58;;
51179;SDS011;37243;49.814;8.652;2022-12-24T09:26:05;1.75;;;1.33;;
51179;SDS011;37243;49.814;8.652;2022-12-24T09:28:33;3.70;;;1.65;;
51179;SDS011;37243;49.814;8.652;2022-12-24T09:31:05;1.70;;;1.30;;
51179;SDS011;37243;49.814;8.652;2022-12-24T09:33:34;3.05;;;1.73;;
51179;SDS011;37243;49.814;8.652;2022-12-24T09:36:04;1.92;;;1.73;;
51179;SDS011;37243;49.814;8.652;2022-12-24T09:38:34;3.63;;;1.92;;
51179;SDS011;37243;49.814;8.652;2022-12-24T09:41:10;5.95;;;2.15;;
51179;SDS011;37243;49.814;8.652;2022-12-24T09:43:43;3.55;;;2.30;;
51179;SDS011;37243;49.814;8.652;2022-12-24T09:46:19;6.65;;;2.92;;
51179;SDS011;37243;49.814;8.652;2022-12-24T09:48:52;7.38;;;2.30;;
51179;SDS011;37243;49.814;8.652;2022-12-24T09:51:24;10.57;;;2.67;;
51179;SDS011;37243;49.814;8.652;2022-12-24T09:53:56;4.82;;;2.38;;
51179;SDS011;37243;49.814;8.652;2022-12-24T09:56:32;4.03;;;2.60;;
51179;SDS011;37243;49.814;8.652;2022-12-24T09:59:08;4.47;;;2.42;;
51179;SDS011;37243;49.814;8.652;2022-12-24T10:01:42;4.38;;;1.95;;
51179;SDS011;37243;49.814;8.652;2022-12-24T10:04:11;5.82;;;2.95;;
51179;SDS011;37243;49.814;8.652;2022-12-24T10:06:44;3.78;;;2.50;;
51179;SDS011;37243;49.814;8.652;2022-12-24T10:09:21;4.53;;;2.80;;
51179;SDS011;37243;49.814;8.652;2022-12-24T10:12:00;4.15;;;2.33;;
51179;SDS011;37243;49.814;8.652;2022-12-24T10:14:38;5.45;;;2.50;;
51179;SDS011;37243;49.814;8.652;2022-12-24T10:17:34;5.57;;;2.67;;
51179;SDS011;37243;49.814;8.652;2022-12-24T10:20:21;7.30;;;3.25;;
51179;SDS011;37243;49.814;8.652;2022-12-24T10:23:01;5.22;;;2.60;;
51179;SDS011;37243;49.814;8.652;2022-12-24T10:25:35;6.45;;;3.20;;
51179;SDS011;37243;49.814;8.652;2022-12-24T10:28:12;5.30;;;2.65;;
51179;SDS011;37243;49.814;8.652;2022-12-24T10:30:43;3.50;;;2.28;;
51179;SDS011;37243;49.814;8.652;2022-12-24T10:33:19;5.10;;;2.70;;
51179;SDS011;37243;49.814;8.652;2022-12-24T10:35:55;4.28;;;2.67;;
51179;SDS011;37243;49.814;8.652;2022-12-24T10:38:25;4.15;;;2.65;;
51179;SDS011;37243;49.814;8.652;2022-12-24T10:40:53;5.13;;;2.85;;
51179;SDS011;37243;49.814;8.652;2022-12-24T10:43:27;4.13;;;2.58;;
51179;SDS011;37243;49.814;8.652;2022-12-24T10:45:58;4.45;;;2.70;;
51179;SDS011;37243;49.814;8.652;2022-12-24T10:48:32;4.20;;;2.65;;
51179;SDS011;37243;49.814;8.652;2022-12-24T10:51:09;5.18;;;2.55;;
51179;SDS011;37243;49.814;8.652;2022-12-24T10:53:41;6.28;;;3.17;;
51179;SDS011;37243;49.814;8.652;2022-12-24T10:56:12;5.03;;;3.08;;
51179;SDS011;37243;49.814;8.652;2022-12-24T10:58:43;4.13;;;2.80;;
51179;SDS011;37243;49.814;8.652;2022-12-24T11:01:13;5.47;;;2.75;;
51179;SDS011;37243;49.814;8.652;2022-12-24T11:03:44;5.07;;;2.60;;
51179;SDS011;37243;49.814;8.652;2022-12-24T11:06:13;6.43;;;2.78;;
51179;SDS011;37243;49.814;8.652;2022-12-24T11:08:45;6.25;;;3.00;;
51179;SDS011;37243;49.814;8.652;2022-12-24T11:11:14;6.53;;;2.83;;
51179;SDS011;37243;49.814;8.652;2022-12-24T11:13:44;7.35;;;3.17;;
51179;SDS011;37243;49.814;8.652;2022-12-24T11:16:20;6.60;;;2.88;;
51179;SDS011;37243;49.814;8.652;2022-12-24T11:18:58;3.50;;;2.58;;
51179;SDS011;37243;49.814;8.652;2022-12-24T11:21:30;4.75;;;3.08;;
51179;SDS011;37243;49.814;8.652;2022-12-24T11:24:01;5.80;;;2.80;;
51179;SDS011;37243;49.814;8.652;2022-12-24T11:26:35;5.43;;;2.92;;
51179;SDS011;37243;49.814;8.652;2022-12-24T11:29:04;4.13;;;2.45;;
51179;SDS011;37243;49.814;8.652;2022-12-24T11:31:40;4.97;;;2.63;;
51179;SDS011;37243;49.814;8.652;2022-12-24T11:34:21;4.15;;;3.00;;
51179;SDS011;37243;49.814;8.652;2022-12-24T11:36:52;3.03;;;2.55;;
51179;SDS011;37243;49.814;8.652;2022-12-24T11:39:24;5.07;;;2.75;;
51179;SDS011;37243;49.814;8.652;2022-12-24T11:41:53;4.65;;;2.53;;
51179;SDS011;37243;49.814;8.652;2022-12-24T11:44:23;7.22;;;3.00;;
51179;SDS011;37243;49.814;8.652;2022-12-24T11:46:55;8.77;;;3.22;;
51179;SDS011;37243;49.814;8.652;2022-12-24T11:49:27;6.53;;;2.88;;
51179;SDS011;37243;49.814;8.652;2022-12-24T11:51:58;6.53;;;2.55;;
51179;SDS011;37243;49.814;8.652;2022-12-24T11:54:47;4.32;;;2.50;;
51179;SDS011;37243;49.814;8.652;2022-12-24T11:57:27;3.92;;;2.92;;
51179;SDS011;37243;49.814;8.652;2022-12-24T12:00:07;6.55;;;3.00;;
51179;SDS011;37243;49.814;8.652;2022-12-24T12:02:38;6.47;;;2.70;;
51179;SDS011;37243;49.814;8.652;2022-12-24T12:05:12;9.73;;;3.00;;
51179;SDS011;37243;49.814;8.652;2022-12-24T12:07:44;4.53;;;2.85;;
51179;SDS011;37243;49.814;8.652;2022-12-24T12:10:18;5.35;;;2.42;;
51179;SDS011;37243;49.814;8.652;2022-12-24T12:12:56;5.80;;;2.65;;
51179;SDS011;37243;49.814;8.652;2022-12-24T12:15:28;5.70;;;2.60;;
51179;SDS011;37243;49.814;8.652;2022-12-24T12:18:03;5.03;;;2.78;;
51179;SDS011;37243;49.814;8.652;2022-12-24T12:20:37;7.22;;;3.20;;
51179;SDS011;37243;49.814;8.652;2022-12-24T12:23:10;5.63;;;2.70;;
51179;SDS011;37243;49.814;8.652;2022-12-24T12:25:44;4.97;;;2.70;;
51179;SDS011;37243;49.814;8.652;2022-12-24T12:28:17;2.60;;;2.40;;
51179;SDS011;37243;49.814;8.652;2022-12-24T12:30:54;4.43;;;2.88;;
51179;SDS011;37243;49.814;8.652;2022-12-24T12:33:30;4.43;;;2.80;;
51179;SDS011;37243;49.814;8.652;2022-12-24T12:36:07;3.20;;;2.55;;
51179;SDS011;37243;49.814;8.652;2022-12-24T12:38:39;5.05;;;2.95;;
51179;SDS011;37243;49.814;8.652;2022-12-24T12:41:20;5.53;;;2.70;;
51179;SDS011;37243;49.814;8.652;2022-12-24T12:44:02;3.22;;;2.83;;
51179;SDS011;37243;49.814;8.652;2022-12-24T12:46:44;5.10;;;2.85;;
51179;SDS011;37243;49.814;8.652;2022-12-24T12:49:26;7.82;;;3.92;;
51179;SDS011;37243;49.814;8.652;2022-12-24T12:52:09;5.55;;;3.47;;
51179;SDS011;37243;49.814;8.652;2022-12-24T12:54:51;7.13;;;3.05;;
51179;SDS011;37243;49.814;8.652;2022-12-24T12:57:30;5.85;;;3.13;;
51179;SDS011;37243;49.814;8.652;2022-12-24T13:00:04;4.88;;;3.10;;
51179;SDS011;37243;49.814;8.652;2022-12-24T13:02:43;8.25;;;3.42;;
51179;SDS011;37243;49.814;8.652;2022-12-24T13:05:37;6.40;;;3.25;;
51179;SDS011;37243;49.814;8.652;2022-12-24T13:11:30;5.45;;;2.95;;
51179;SDS011;37243;49.814;8.652;2022-12-24T13:22:55;12.38;;;3.90;;
51179;SDS011;37243;49.814;8.652;2022-12-24T13:25:29;11.60;;;4.00;;
51179;SDS011;37243;49.814;8.652;2022-12-24T13:28:17;11.13;;;4.03;;
51179;SDS011;37243;49.814;8.652;2022-12-24T13:33:55;7.47;;;3.72;;
51179;SDS011;37243;49.814;8.652;2022-12-24T13:36:28;9.77;;;3.80;;
51179;SDS011;37243;49.814;8.652;2022-12-24T13:48:17;7.90;;;3.67;;
51179;SDS011;37243;49.814;8.652;2022-12-24T13:50:57;8.40;;;3.67;;
51179;SDS011;37243;49.814;8.652;2022-12-24T13:53:31;5.63;;;3.35;;
51179;SDS011;37243;49.814;8.652;2022-12-24T13:56:05;8.55;;;3.30;;
51179;SDS011;37243;49.814;8.652;2022-12-24T13:58:39;8.30;;;3.53;;
51179;SDS011;37243;49.814;8.652;2022-12-24T14:01:11;9.65;;;3.58;;
51179;SDS011;37243;49.814;8.652;2022-12-24T14:03:42;18.30;;;3.70;;
51179;SDS011;37243;49.814;8.652;2022-12-24T14:06:19;7.43;;;2.88;;
51179;SDS011;37243;49.814;8.652;2022-12-24T14:08:51;7.25;;;3.50;;
51179;SDS011;37243;49.814;8.652;2022-12-24T14:11:23;4.90;;;3.10;;
51179;SDS011;37243;49.814;8.652;2022-12-24T14:16:54;6.63;;;3.13;;
51179;SDS011;37243;49.814;8.652;2022-12-24T14:19:26;5.70;;;3.63;;
51179;SDS011;37243;49.814;8.652;2022-12-24T14:21:58;4.82;;;3.03;;
51179;SDS011;37243;49.814;8.652;2022-12-24T14:24:32;5.63;;;3.45;;
51179;SDS011;37243;49.814;8.652;2022-12-24T14:27:06;4.70;;;3.20;;
51179;SDS011;37243;49.814;8.652;2022-12-24T14:29:45;6.47;;;3.08;;
51179;SDS011;37243;49.814;8.652;2022-12-24T14:32:17;4.88;;;3.28;;
51179;SDS011;37243;49.814;8.652;2022-12-24T14:34:46;6.60;;;3.53;;
51179;SDS011;37243;49.814;8.652;2022-12-24T14:37:31;5.05;;;3.13;;
51179;SDS011;37243;49.814;8.652;2022-12-24T14:39:59;5.43;;;3.13;;
51179;SDS011;37243;49.814;8.652;2022-12-24T14:42:31;5.28;;;3.00;;
51179;SDS011;37243;49.814;8.652;2022-12-24T14:45:12;5.05;;;3.13;;
51179;SDS011;37243;49.814;8.652;2022-12-24T14:47:51;4.93;;;3.10;;
51179;SDS011;37243;49.814;8.652;2022-12-24T14:50:38;8.23;;;3.40;;
51179;SDS011;37243;49.814;8.652;2022-12-24T14:53:18;3.80;;;3.05;;
51179;SDS011;37243;49.814;8.652;2022-12-24T14:55:55;3.53;;;2.42;;
51179;SDS011;37243;49.814;8.652;2022-12-24T14:58:27;3.70;;;2.95;;
51179;SDS011;37243;49.814;8.652;2022-12-24T15:04:01;3.05;;;2.75;;
51179;SDS011;37243;49.814;8.652;2022-12-24T15:06:32;4.45;;;2.78;;
51179;SDS011;37243;49.814;8.652;2022-12-24T15:09:03;3.78;;;2.60;;
51179;SDS011;37243;49.814;8.652;2022-12-24T15:11:32;5.50;;;2.97;;
51179;SDS011;37243;49.814;8.652;2022-12-24T15:14:00;4.60;;;2.80;;
51179;SDS011;37243;49.814;8.652;2022-12-24T15:16:31;4.15;;;2.65;;
51179;SDS011;37243;49.814;8.652;2022-12-24T15:19:02;3.80;;;2.85;;
51179;SDS011;37243;49.814;8.652;2022-12-24T15:21:34;3.75;;;2.60;;
51179;SDS011;37243;49.814;8.652;2022-12-24T15:24:08;3.75;;;2.65;;
51179;SDS011;37243;49.814;8.652;2022-12-24T15:26:51;4.90;;;2.75;;
51179;SDS011;37243;49.814;8.652;2022-12-24T15:29:21;4.32;;;2.53;;
51179;SDS011;37243;49.814;8.652;2022-12-24T15:31:53;3.38;;;2.83;;
51179;SDS011;37243;49.814;8.652;2022-12-24T15:34:27;4.55;;;3.03;;
51179;SDS011;37243;49.814;8.652;2022-12-24T15:37:03;3.83;;;2.97;;
51179;SDS011;37243;49.814;8.652;2022-12-24T15:39:38;3.25;;;2.60;;
51179;SDS011;37243;49.814;8.652;2022-12-24T15:42:07;5.57;;;2.42;;
51179;SDS011;37243;49.814;8.652;2022-12-24T15:44:43;4.53;;;2.83;;
51179;SDS011;37243;49.814;8.652;2022-12-24T15:47:26;5.22;;;2.63;;
51179;SDS011;37243;49.814;8.652;2022-12-24T15:50:02;5.25;;;2.88;;